createdAt,value
2023-05-09T00:00:04.276Z,9.75
2023-05-09T00:00:17.175Z,9.74
2023-05-09T00:00:31.367Z,9.75
2023-05-09T00:00:42.089Z,9.74
2023-05-09T00:00:55.268Z,9.74
2023-05-09T00:01:06.003Z,9.74
2023-05-09T00:01:19.202Z,9.74
2023-05-09T00:01:30.934Z,9.73
2023-05-09T00:01:41.683Z,9.73
2023-05-09T00:01:52.453Z,9.71
2023-05-09T00:02:03.207Z,9.71
2023-05-09T00:02:13.982Z,9.71
2023-05-09T00:02:26.486Z,9.71
2023-05-09T00:02:38.761Z,9.68
2023-05-09T00:02:51.296Z,9.70
2023-05-09T00:03:03.171Z,9.68
2023-05-09T00:03:14.848Z,9.67
2023-05-09T00:03:27.225Z,9.67
2023-05-09T00:03:39.671Z,9.67
2023-05-09T00:03:52.390Z,9.68
2023-05-09T00:04:04.238Z,9.68
2023-05-09T00:04:16.697Z,9.67
2023-05-09T00:04:28.436Z,9.67
2023-05-09T00:04:40.188Z,9.67
2023-05-09T00:04:53.380Z,9.67
2023-05-09T00:05:04.135Z,9.67
2023-05-09T00:05:16.695Z,9.67
2023-05-09T00:05:27.518Z,9.67
2023-05-09T00:05:39.247Z,9.68
2023-05-09T00:05:49.937Z,9.67
2023-05-09T00:06:02.156Z,9.67
2023-05-09T00:06:14.552Z,9.67
2023-05-09T00:06:25.387Z,9.67
2023-05-09T00:06:36.209Z,9.67
2023-05-09T00:06:47.897Z,9.67
2023-05-09T00:06:59.391Z,9.68
2023-05-09T00:07:10.103Z,9.65
2023-05-09T00:07:21.798Z,9.67
2023-05-09T00:07:34.270Z,9.65
2023-05-09T00:07:46.479Z,9.65
2023-05-09T00:07:59.711Z,9.67
2023-05-09T00:08:10.465Z,9.65
2023-05-09T00:08:21.231Z,9.65
2023-05-09T00:08:31.987Z,9.65
2023-05-09T00:08:44.440Z,9.63
2023-05-09T00:08:56.137Z,9.63
2023-05-09T00:09:06.897Z,9.63
2023-05-09T00:09:17.581Z,9.63
2023-05-09T00:09:28.297Z,9.62
2023-05-09T00:09:40.006Z,9.63
2023-05-09T00:09:51.689Z,9.62
2023-05-09T00:10:02.443Z,9.60
2023-05-09T00:10:14.232Z,9.60
2023-05-09T00:10:24.957Z,9.62
2023-05-09T00:10:35.731Z,9.60
2023-05-09T00:10:46.402Z,9.60
2023-05-09T00:10:57.151Z,9.60
2023-05-09T00:11:09.529Z,9.60
2023-05-09T00:11:21.699Z,9.60
2023-05-09T00:11:32.399Z,9.59
2023-05-09T00:11:43.128Z,9.59
2023-05-09T00:11:54.824Z,9.59
2023-05-09T00:12:05.557Z,9.59
2023-05-09T00:12:16.269Z,9.58
2023-05-09T00:12:27.023Z,9.58
2023-05-09T00:12:37.734Z,9.58
2023-05-09T00:12:50.702Z,9.56
2023-05-09T00:13:01.443Z,9.56
2023-05-09T00:13:12.250Z,9.58
2023-05-09T00:13:23.048Z,9.58
2023-05-09T00:13:34.758Z,9.58
2023-05-09T00:13:45.421Z,9.56
2023-05-09T00:13:56.140Z,9.56
2023-05-09T00:14:08.558Z,9.56
2023-05-09T00:14:19.287Z,9.56
2023-05-09T00:14:30.009Z,9.56
2023-05-09T00:14:40.754Z,9.55
2023-05-09T00:14:52.978Z,9.55
2023-05-09T00:15:03.725Z,9.55
2023-05-09T00:15:14.630Z,9.53
2023-05-09T00:15:25.460Z,9.53
2023-05-09T00:15:37.878Z,9.53
2023-05-09T00:15:49.818Z,9.53
2023-05-09T00:16:02.122Z,9.53
2023-05-09T00:16:12.907Z,9.53
2023-05-09T00:16:23.609Z,9.53
2023-05-09T00:16:34.332Z,9.53
2023-05-09T00:16:45.034Z,9.52
2023-05-09T00:16:56.801Z,9.53
2023-05-09T00:17:07.475Z,9.53
2023-05-09T00:17:18.222Z,9.53
2023-05-09T00:17:28.991Z,9.52
2023-05-09T00:17:39.685Z,9.53
2023-05-09T00:17:51.405Z,9.52
2023-05-09T00:18:03.882Z,9.50
2023-05-09T00:18:14.649Z,9.52
2023-05-09T00:18:26.825Z,9.53
2023-05-09T00:18:39.257Z,9.52
2023-05-09T00:18:51.009Z,9.50
2023-05-09T00:19:01.782Z,9.52
2023-05-09T00:19:13.468Z,9.50
2023-05-09T00:19:24.392Z,9.52
2023-05-09T00:19:35.181Z,9.52
2023-05-09T00:19:45.960Z,9.50
2023-05-09T00:19:56.653Z,9.49
2023-05-09T00:20:08.345Z,9.50
2023-05-09T00:20:20.079Z,9.49
2023-05-09T00:20:30.818Z,9.48
2023-05-09T00:20:41.578Z,9.49
2023-05-09T00:20:53.293Z,9.48
2023-05-09T00:21:04.034Z,9.48
2023-05-09T00:21:16.442Z,9.48
2023-05-09T00:21:27.141Z,9.48
2023-05-09T00:21:37.885Z,9.49
2023-05-09T00:21:50.326Z,9.45
2023-05-09T00:22:02.771Z,9.45
2023-05-09T00:22:15.191Z,9.48
2023-05-09T00:22:25.904Z,9.44
2023-05-09T00:22:37.559Z,9.45
2023-05-09T00:22:49.767Z,9.45
2023-05-09T00:23:01.498Z,9.48
2023-05-09T00:23:12.198Z,9.44
2023-05-09T00:23:24.775Z,9.44
2023-05-09T00:23:35.523Z,9.44
2023-05-09T00:23:46.263Z,9.44
2023-05-09T00:23:58.643Z,9.44
2023-05-09T00:24:10.309Z,9.42
2023-05-09T00:24:21.049Z,9.45
2023-05-09T00:24:31.758Z,9.44
2023-05-09T00:24:43.502Z,9.44
2023-05-09T00:24:54.268Z,9.44
2023-05-09T00:25:05.118Z,9.44
2023-05-09T00:25:17.645Z,9.42
2023-05-09T00:25:28.374Z,9.42
2023-05-09T00:25:39.093Z,9.44
2023-05-09T00:25:51.581Z,9.44
2023-05-09T00:26:02.293Z,9.44
2023-05-09T00:26:14.872Z,9.44
2023-05-09T00:26:26.564Z,9.44
2023-05-09T00:26:37.262Z,9.42
2023-05-09T00:26:48.962Z,9.42
2023-05-09T00:26:59.688Z,9.42
2023-05-09T00:27:10.462Z,9.42
2023-05-09T00:27:22.154Z,9.42
2023-05-09T00:27:32.856Z,9.42
2023-05-09T00:27:43.558Z,9.41
2023-05-09T00:27:56.026Z,9.41
2023-05-09T00:28:06.773Z,9.41
2023-05-09T00:28:17.506Z,9.41
2023-05-09T00:28:28.207Z,9.42
2023-05-09T00:28:39.933Z,9.41
2023-05-09T00:28:50.749Z,9.41
2023-05-09T00:29:04.409Z,9.40
2023-05-09T00:29:17.106Z,9.41
2023-05-09T00:29:27.813Z,9.40
2023-05-09T00:29:39.533Z,9.40
2023-05-09T00:29:52.728Z,9.41
2023-05-09T00:30:04.405Z,9.40
2023-05-09T00:30:16.332Z,9.38
2023-05-09T00:30:27.988Z,9.40
2023-05-09T00:30:40.401Z,9.40
2023-05-09T00:30:52.826Z,9.40
2023-05-09T00:31:05.273Z,9.38
2023-05-09T00:31:16.009Z,9.38
2023-05-09T00:31:29.222Z,9.40
2023-05-09T00:31:40.012Z,9.40
2023-05-09T00:31:51.758Z,9.40
2023-05-09T00:32:03.461Z,9.40
2023-05-09T00:32:15.182Z,9.40
2023-05-09T00:32:25.932Z,9.40
2023-05-09T00:32:37.618Z,9.40
2023-05-09T00:32:48.334Z,9.40
2023-05-09T00:33:00.731Z,9.38
2023-05-09T00:33:13.639Z,9.40
2023-05-09T00:33:25.342Z,9.38
2023-05-09T00:33:36.979Z,9.38
2023-05-09T00:33:48.691Z,9.38
2023-05-09T00:34:00.387Z,9.40
2023-05-09T00:34:11.103Z,9.38
2023-05-09T00:34:21.822Z,9.38
2023-05-09T00:34:35.471Z,9.38
2023-05-09T00:34:46.148Z,9.38
2023-05-09T00:34:56.856Z,9.37
2023-05-09T00:35:09.285Z,9.37
2023-05-09T00:35:19.963Z,9.37
2023-05-09T00:35:30.735Z,9.38
2023-05-09T00:35:41.498Z,9.34
2023-05-09T00:35:53.199Z,9.35
2023-05-09T00:36:04.912Z,9.35
2023-05-09T00:36:16.563Z,9.34
2023-05-09T00:36:27.325Z,9.34
2023-05-09T00:36:38.990Z,9.34
2023-05-09T00:36:49.767Z,9.34
2023-05-09T00:37:00.515Z,9.32
2023-05-09T00:37:12.224Z,9.32
2023-05-09T00:37:23.973Z,9.30
2023-05-09T00:37:34.702Z,9.31
2023-05-09T00:37:47.223Z,9.31
2023-05-09T00:37:58.010Z,9.30
2023-05-09T00:38:08.736Z,9.31
2023-05-09T00:38:19.452Z,9.30
2023-05-09T00:38:31.131Z,9.30
2023-05-09T00:38:41.854Z,9.30
2023-05-09T00:38:52.577Z,9.30
2023-05-09T00:39:03.332Z,9.27
2023-05-09T00:39:14.012Z,9.27
2023-05-09T00:39:25.752Z,9.26
2023-05-09T00:39:36.477Z,9.27
2023-05-09T00:39:48.219Z,9.26
2023-05-09T00:39:58.927Z,9.26
2023-05-09T00:40:09.757Z,9.26
2023-05-09T00:40:20.540Z,9.24
2023-05-09T00:40:32.265Z,9.24
2023-05-09T00:40:45.426Z,9.24
2023-05-09T00:40:56.143Z,9.23
2023-05-09T00:41:08.544Z,9.23
2023-05-09T00:41:20.225Z,9.22
2023-05-09T00:41:30.972Z,9.22
2023-05-09T00:41:41.752Z,9.20
2023-05-09T00:41:54.169Z,9.20
2023-05-09T00:42:06.589Z,9.19
2023-05-09T00:42:17.327Z,9.20
2023-05-09T00:42:29.771Z,9.20
2023-05-09T00:42:42.682Z,9.19
2023-05-09T00:42:55.062Z,9.17
2023-05-09T00:43:07.489Z,9.17
2023-05-09T00:43:18.179Z,9.17
2023-05-09T00:43:28.868Z,9.17
2023-05-09T00:43:40.582Z,9.16
2023-05-09T00:43:51.339Z,9.16
2023-05-09T00:44:03.790Z,9.15
2023-05-09T00:44:16.186Z,9.16
2023-05-09T00:44:27.860Z,9.13
2023-05-09T00:44:39.548Z,9.15
2023-05-09T00:44:52.706Z,9.13
2023-05-09T00:45:03.444Z,9.13
2023-05-09T00:45:15.305Z,9.13
2023-05-09T00:45:27.155Z,9.13
2023-05-09T00:45:37.870Z,9.13
2023-05-09T00:45:49.547Z,9.13
2023-05-09T00:46:00.282Z,9.10
2023-05-09T00:46:11.935Z,9.12
2023-05-09T00:46:24.138Z,9.10
2023-05-09T00:46:35.844Z,9.12
2023-05-09T00:46:47.611Z,9.08
2023-05-09T00:46:58.335Z,9.10
2023-05-09T00:47:11.512Z,9.10
2023-05-09T00:47:23.251Z,9.12
2023-05-09T00:47:36.503Z,9.10
2023-05-09T00:47:47.326Z,9.10
2023-05-09T00:47:58.083Z,9.08
2023-05-09T00:48:08.791Z,9.08
2023-05-09T00:48:20.545Z,9.08
2023-05-09T00:48:32.269Z,9.08
2023-05-09T00:48:42.956Z,9.10
2023-05-09T00:48:53.682Z,9.08
2023-05-09T00:49:04.441Z,9.10
2023-05-09T00:49:16.891Z,9.10
2023-05-09T00:49:28.571Z,9.08
2023-05-09T00:49:40.263Z,9.06
2023-05-09T00:49:50.984Z,9.08
2023-05-09T00:50:03.666Z,9.08
2023-05-09T00:50:15.852Z,9.06
2023-05-09T00:50:28.298Z,9.08
2023-05-09T00:50:39.935Z,9.08
2023-05-09T00:50:50.649Z,9.08
2023-05-09T00:51:01.519Z,9.06
2023-05-09T00:51:13.280Z,9.06
2023-05-09T00:51:24.037Z,9.08
2023-05-09T00:51:34.735Z,9.08
2023-05-09T00:51:47.124Z,9.06
2023-05-09T00:51:59.551Z,9.08
2023-05-09T00:52:11.963Z,9.10
2023-05-09T00:52:23.907Z,9.06
2023-05-09T00:52:34.700Z,9.08
2023-05-09T00:52:47.130Z,9.06
2023-05-09T00:52:58.855Z,9.08
2023-05-09T00:53:09.611Z,9.06
2023-05-09T00:53:20.338Z,9.06
2023-05-09T00:53:32.767Z,9.06
2023-05-09T00:53:43.523Z,9.06
2023-05-09T00:53:54.242Z,9.04
2023-05-09T00:54:08.484Z,9.06
2023-05-09T00:54:20.794Z,9.06
2023-05-09T00:54:31.584Z,9.06
2023-05-09T00:54:42.375Z,9.06
2023-05-09T00:54:54.584Z,9.06
2023-05-09T00:55:05.441Z,9.06
2023-05-09T00:55:16.426Z,9.06
2023-05-09T00:55:29.029Z,9.06
2023-05-09T00:55:39.712Z,9.04
2023-05-09T00:55:51.418Z,9.04
2023-05-09T00:56:04.092Z,9.04
2023-05-09T00:56:15.830Z,9.04
2023-05-09T00:56:28.215Z,9.03
2023-05-09T00:56:38.953Z,9.04
2023-05-09T00:56:50.639Z,9.04
2023-05-09T00:57:01.381Z,9.03
2023-05-09T00:57:14.530Z,9.03
2023-05-09T00:57:25.292Z,9.04
2023-05-09T00:57:36.108Z,9.04
2023-05-09T00:57:46.806Z,9.03
2023-05-09T00:57:57.527Z,9.03
2023-05-09T00:58:08.237Z,9.03
2023-05-09T00:58:18.951Z,9.03
2023-05-09T00:58:29.710Z,9.03
2023-05-09T00:58:40.412Z,9.04
2023-05-09T00:58:51.120Z,9.04
2023-05-09T00:59:02.818Z,9.03
2023-05-09T00:59:16.275Z,9.03
2023-05-09T00:59:28.094Z,9.04
2023-05-09T00:59:40.570Z,9.03
2023-05-09T00:59:52.232Z,9.03
2023-05-09T01:00:02.947Z,9.03
2023-05-09T01:00:14.576Z,9.03
2023-05-09T01:00:25.290Z,9.03
2023-05-09T01:00:36.017Z,9.03
2023-05-09T01:00:46.736Z,9.03
2023-05-09T01:00:58.420Z,9.03
2023-05-09T01:01:11.659Z,9.01
2023-05-09T01:01:24.041Z,9.03
2023-05-09T01:01:34.769Z,9.01
2023-05-09T01:01:45.581Z,9.03
2023-05-09T01:01:56.302Z,9.01
2023-05-09T01:02:06.999Z,9.03
2023-05-09T01:02:17.774Z,9.03
2023-05-09T01:02:30.223Z,9.01
2023-05-09T01:02:41.982Z,9.03
2023-05-09T01:02:53.936Z,9.03
2023-05-09T01:03:05.804Z,9.03
2023-05-09T01:03:16.617Z,9.03
2023-05-09T01:03:29.165Z,9.01
2023-05-09T01:03:42.216Z,9.03
2023-05-09T01:03:54.634Z,9.03
2023-05-09T01:04:07.008Z,9.01
2023-05-09T01:04:21.248Z,9.01
2023-05-09T01:04:31.950Z,9.03
2023-05-09T01:04:42.709Z,9.03
2023-05-09T01:04:55.129Z,9.01
2023-05-09T01:05:06.812Z,9.01
2023-05-09T01:05:17.652Z,9.01
2023-05-09T01:05:28.423Z,9.01
2023-05-09T01:05:40.667Z,9.01
2023-05-09T01:05:52.380Z,9.03
2023-05-09T01:06:04.556Z,9.01
2023-05-09T01:06:16.228Z,9.03
2023-05-09T01:06:26.958Z,9.01
2023-05-09T01:06:38.625Z,9.03
2023-05-09T01:06:50.885Z,9.03
2023-05-09T01:07:01.563Z,9.01
2023-05-09T01:07:12.349Z,9.01
2023-05-09T01:07:24.080Z,9.01
2023-05-09T01:07:37.267Z,9.04
2023-05-09T01:07:48.021Z,9.01
2023-05-09T01:08:00.248Z,9.03
2023-05-09T01:08:12.682Z,9.01
2023-05-09T01:08:25.125Z,9.04
2023-05-09T01:08:36.794Z,9.03
2023-05-09T01:08:48.486Z,9.03
2023-05-09T01:08:59.180Z,9.03
2023-05-09T01:09:10.852Z,9.04
2023-05-09T01:09:21.598Z,9.04
2023-05-09T01:09:33.263Z,9.03
2023-05-09T01:09:44.938Z,9.06
2023-05-09T01:09:55.662Z,9.06
2023-05-09T01:10:06.359Z,9.06
2023-05-09T01:10:18.034Z,9.08
2023-05-09T01:10:30.220Z,9.08
2023-05-09T01:10:43.151Z,9.06
2023-05-09T01:10:53.875Z,9.08
2023-05-09T01:11:04.616Z,9.08
2023-05-09T01:11:17.295Z,9.08
2023-05-09T01:11:29.753Z,9.10
2023-05-09T01:11:40.500Z,9.10
2023-05-09T01:11:51.235Z,9.12
2023-05-09T01:12:04.362Z,9.10
2023-05-09T01:12:15.132Z,9.12
2023-05-09T01:12:28.391Z,9.10
2023-05-09T01:12:41.655Z,9.10
2023-05-09T01:12:52.411Z,9.10
2023-05-09T01:13:04.106Z,9.10
2023-05-09T01:13:15.838Z,9.10
2023-05-09T01:13:28.235Z,9.12
2023-05-09T01:13:38.998Z,9.13
2023-05-09T01:13:51.488Z,9.12
2023-05-09T01:14:04.655Z,9.13
2023-05-09T01:14:17.322Z,9.15
2023-05-09T01:14:28.044Z,9.13
2023-05-09T01:14:38.726Z,9.15
2023-05-09T01:14:52.039Z,9.13
2023-05-09T01:15:02.752Z,9.15
2023-05-09T01:15:14.662Z,9.16
2023-05-09T01:15:28.152Z,9.15
2023-05-09T01:15:39.926Z,9.17
2023-05-09T01:15:50.618Z,9.16
2023-05-09T01:16:03.101Z,9.16
2023-05-09T01:16:15.844Z,9.16
2023-05-09T01:16:29.034Z,9.17
2023-05-09T01:16:39.753Z,9.16
2023-05-09T01:16:52.186Z,9.16
2023-05-09T01:17:03.940Z,9.17
2023-05-09T01:17:14.683Z,9.17
2023-05-09T01:17:27.915Z,9.17
2023-05-09T01:17:38.671Z,9.19
2023-05-09T01:17:50.343Z,9.19
2023-05-09T01:18:03.516Z,9.19
2023-05-09T01:18:14.375Z,9.19
2023-05-09T01:18:26.630Z,9.20
2023-05-09T01:18:37.383Z,9.20
2023-05-09T01:18:49.361Z,9.19
2023-05-09T01:19:01.524Z,9.19
2023-05-09T01:19:12.304Z,9.20
2023-05-09T01:19:23.012Z,9.22
2023-05-09T01:19:33.708Z,9.22
2023-05-09T01:19:44.400Z,9.22
2023-05-09T01:19:56.836Z,9.22
2023-05-09T01:20:07.594Z,9.22
2023-05-09T01:20:19.293Z,9.22
2023-05-09T01:20:31.200Z,9.23
2023-05-09T01:20:41.955Z,9.23
2023-05-09T01:20:54.871Z,9.23
2023-05-09T01:21:06.564Z,9.23
2023-05-09T01:21:17.308Z,9.20
2023-05-09T01:21:29.508Z,9.22
2023-05-09T01:21:41.954Z,9.23
2023-05-09T01:21:52.703Z,9.23
2023-05-09T01:22:03.413Z,9.23
2023-05-09T01:22:14.105Z,9.23
2023-05-09T01:22:26.551Z,9.24
2023-05-09T01:22:37.268Z,9.23
2023-05-09T01:22:47.996Z,9.24
2023-05-09T01:22:58.683Z,9.24
2023-05-09T01:23:11.921Z,9.24
2023-05-09T01:23:24.309Z,9.24
2023-05-09T01:23:36.728Z,9.26
2023-05-09T01:23:47.481Z,9.24
2023-05-09T01:23:58.320Z,9.26
2023-05-09T01:24:10.806Z,9.26
2023-05-09T01:24:22.517Z,9.26
2023-05-09T01:24:34.203Z,9.26
2023-05-09T01:24:46.642Z,9.26
2023-05-09T01:24:58.846Z,9.27
2023-05-09T01:25:12.218Z,9.30
2023-05-09T01:25:24.769Z,9.30
2023-05-09T01:25:37.958Z,9.30
2023-05-09T01:25:48.687Z,9.30
2023-05-09T01:26:01.887Z,9.31
2023-05-09T01:26:14.110Z,9.31
2023-05-09T01:26:26.778Z,9.31
2023-05-09T01:26:38.452Z,9.31
2023-05-09T01:26:50.920Z,9.32
2023-05-09T01:27:05.099Z,9.32
2023-05-09T01:27:16.788Z,9.34
2023-05-09T01:27:27.492Z,9.32
2023-05-09T01:27:38.225Z,9.32
2023-05-09T01:27:48.925Z,9.34
2023-05-09T01:27:59.681Z,9.34
2023-05-09T01:28:10.471Z,9.34
2023-05-09T01:28:21.221Z,9.35
2023-05-09T01:28:31.925Z,9.35
2023-05-09T01:28:43.598Z,9.34
2023-05-09T01:28:56.063Z,9.35
2023-05-09T01:29:08.506Z,9.35
2023-05-09T01:29:20.179Z,9.35
2023-05-09T01:29:30.922Z,9.37
2023-05-09T01:29:41.661Z,9.35
2023-05-09T01:29:53.338Z,9.34
2023-05-09T01:30:04.070Z,9.35
2023-05-09T01:30:15.747Z,9.35
2023-05-09T01:30:28.236Z,9.35
2023-05-09T01:30:40.124Z,9.37
2023-05-09T01:30:50.832Z,9.37
2023-05-09T01:31:03.806Z,9.37
2023-05-09T01:31:16.949Z,9.35
2023-05-09T01:31:29.462Z,9.35
2023-05-09T01:31:40.291Z,9.35
2023-05-09T01:31:52.724Z,9.35
2023-05-09T01:32:04.467Z,9.37
2023-05-09T01:32:16.635Z,9.35
2023-05-09T01:32:28.917Z,9.35
2023-05-09T01:32:43.147Z,9.35
2023-05-09T01:32:56.363Z,9.35
2023-05-09T01:33:10.042Z,9.35
2023-05-09T01:33:20.777Z,9.35
2023-05-09T01:33:31.519Z,9.35
2023-05-09T01:33:43.947Z,9.35
2023-05-09T01:33:56.870Z,9.37
2023-05-09T01:34:09.057Z,9.35
2023-05-09T01:34:21.001Z,9.35
2023-05-09T01:34:33.427Z,9.35
2023-05-09T01:34:45.754Z,9.35
2023-05-09T01:34:57.444Z,9.37
2023-05-09T01:35:08.199Z,9.35
2023-05-09T01:35:18.921Z,9.35
2023-05-09T01:35:31.632Z,9.37
2023-05-09T01:35:42.345Z,9.37
2023-05-09T01:35:53.031Z,9.37
2023-05-09T01:36:05.719Z,9.38
2023-05-09T01:36:19.863Z,9.37
2023-05-09T01:36:31.532Z,9.38
2023-05-09T01:36:42.252Z,9.40
2023-05-09T01:36:54.445Z,9.38
2023-05-09T01:37:05.275Z,9.40
2023-05-09T01:37:15.976Z,9.40
2023-05-09T01:37:26.683Z,9.41
2023-05-09T01:37:37.504Z,9.41
2023-05-09T01:37:48.211Z,9.41
2023-05-09T01:37:58.902Z,9.41
2023-05-09T01:38:10.641Z,9.42
2023-05-09T01:38:22.373Z,9.44
2023-05-09T01:38:34.886Z,9.42
2023-05-09T01:38:45.609Z,9.44
2023-05-09T01:38:56.316Z,9.42
2023-05-09T01:39:07.018Z,9.44
2023-05-09T01:39:17.758Z,9.42
2023-05-09T01:39:29.960Z,9.42
2023-05-09T01:39:43.401Z,9.44
2023-05-09T01:39:54.092Z,9.45
2023-05-09T01:40:04.862Z,9.45
2023-05-09T01:40:18.502Z,9.45
2023-05-09T01:40:30.281Z,9.45
2023-05-09T01:40:41.029Z,9.48
2023-05-09T01:40:51.802Z,9.45
2023-05-09T01:41:02.497Z,9.48
2023-05-09T01:41:14.908Z,9.48
2023-05-09T01:41:26.588Z,9.48
2023-05-09T01:41:37.278Z,9.49
2023-05-09T01:41:48.943Z,9.49
2023-05-09T01:42:01.139Z,9.50
2023-05-09T01:42:13.316Z,9.50
2023-05-09T01:42:25.488Z,9.50
2023-05-09T01:42:36.224Z,9.52
2023-05-09T01:42:48.636Z,9.53
2023-05-09T01:42:59.327Z,9.53
2023-05-09T01:43:11.742Z,9.55
2023-05-09T01:43:24.926Z,9.53
2023-05-09T01:43:35.714Z,9.55
2023-05-09T01:43:47.204Z,9.55
2023-05-09T01:43:57.904Z,9.56
2023-05-09T01:44:08.646Z,9.56
2023-05-09T01:44:19.312Z,9.58
2023-05-09T01:44:32.216Z,9.58
2023-05-09T01:44:42.950Z,9.58
2023-05-09T01:44:55.132Z,9.58
2023-05-09T01:45:06.905Z,9.59
2023-05-09T01:45:17.869Z,9.59
2023-05-09T01:45:30.292Z,9.60
2023-05-09T01:45:42.726Z,9.60
2023-05-09T01:45:54.414Z,9.60
2023-05-09T01:46:06.136Z,9.62
2023-05-09T01:46:16.832Z,9.62
2023-05-09T01:46:29.300Z,9.62
2023-05-09T01:46:40.004Z,9.63
2023-05-09T01:46:50.787Z,9.62
2023-05-09T01:47:01.508Z,9.62
2023-05-09T01:47:13.983Z,9.62
2023-05-09T01:47:26.408Z,9.63
2023-05-09T01:47:40.081Z,9.63
2023-05-09T01:47:52.533Z,9.65
2023-05-09T01:48:05.211Z,9.63
2023-05-09T01:48:15.920Z,9.65
2023-05-09T01:48:27.632Z,9.65
2023-05-09T01:48:39.294Z,9.65
2023-05-09T01:48:51.700Z,9.65
2023-05-09T01:49:02.429Z,9.67
2023-05-09T01:49:14.140Z,9.67
2023-05-09T01:49:24.862Z,9.67
2023-05-09T01:49:37.272Z,9.65
2023-05-09T01:49:49.723Z,9.67
2023-05-09T01:50:01.468Z,9.67
2023-05-09T01:50:13.399Z,9.68
2023-05-09T01:50:25.116Z,9.68
2023-05-09T01:50:36.858Z,9.68
2023-05-09T01:50:47.588Z,9.68
2023-05-09T01:51:00.001Z,9.67
2023-05-09T01:51:12.429Z,9.68
2023-05-09T01:51:24.861Z,9.68
2023-05-09T01:51:35.574Z,9.68
2023-05-09T01:51:47.295Z,9.68
2023-05-09T01:51:58.997Z,9.70
2023-05-09T01:52:10.678Z,9.70
2023-05-09T01:52:21.394Z,9.68
2023-05-09T01:52:32.125Z,9.70
2023-05-09T01:52:44.325Z,9.70
2023-05-09T01:52:55.044Z,9.70
2023-05-09T01:53:06.804Z,9.71
2023-05-09T01:53:18.511Z,9.70
2023-05-09T01:53:29.265Z,9.70
2023-05-09T01:53:42.440Z,9.71
2023-05-09T01:53:54.643Z,9.71
2023-05-09T01:54:05.323Z,9.71
2023-05-09T01:54:16.983Z,9.70
2023-05-09T01:54:28.672Z,9.71
2023-05-09T01:54:40.430Z,9.71
2023-05-09T01:54:51.179Z,9.71
2023-05-09T01:55:03.351Z,9.71
2023-05-09T01:55:15.922Z,9.71
2023-05-09T01:55:28.449Z,9.71
2023-05-09T01:55:40.224Z,9.71
2023-05-09T01:55:51.054Z,9.71
2023-05-09T01:56:04.803Z,9.71
2023-05-09T01:56:16.446Z,9.73
2023-05-09T01:56:28.160Z,9.71
2023-05-09T01:56:39.853Z,9.73
2023-05-09T01:56:50.551Z,9.73
2023-05-09T01:57:03.020Z,9.73
2023-05-09T01:57:15.400Z,9.74
2023-05-09T01:57:27.376Z,9.73
2023-05-09T01:57:38.135Z,9.73
2023-05-09T01:57:52.263Z,9.74
2023-05-09T01:58:04.979Z,9.73
2023-05-09T01:58:17.915Z,9.73
2023-05-09T01:58:28.651Z,9.73
2023-05-09T01:58:41.113Z,9.73
2023-05-09T01:58:51.857Z,9.73
2023-05-09T01:59:03.542Z,9.73
2023-05-09T01:59:14.231Z,9.74
2023-05-09T01:59:24.949Z,9.73
2023-05-09T01:59:37.366Z,9.73
2023-05-09T01:59:49.064Z,9.74
2023-05-09T02:00:00.826Z,9.71
2023-05-09T02:00:12.475Z,9.73
2023-05-09T02:00:23.261Z,9.73
2023-05-09T02:00:34.083Z,9.73
2023-05-09T02:00:46.228Z,9.71
2023-05-09T02:00:57.064Z,9.73
2023-05-09T02:01:07.840Z,9.73
2023-05-09T02:01:18.588Z,9.73
2023-05-09T02:01:29.329Z,9.73
2023-05-09T02:01:41.032Z,9.71
2023-05-09T02:01:51.793Z,9.73
2023-05-09T02:02:03.538Z,9.71
2023-05-09T02:02:15.244Z,9.71
2023-05-09T02:02:27.023Z,9.71
2023-05-09T02:02:38.831Z,9.71
2023-05-09T02:02:49.631Z,9.73
2023-05-09T02:03:02.360Z,9.73
2023-05-09T02:03:14.803Z,9.73
2023-05-09T02:03:27.259Z,9.71
2023-05-09T02:03:40.424Z,9.73
2023-05-09T02:03:52.882Z,9.71
2023-05-09T02:04:04.540Z,9.73
2023-05-09T02:04:15.286Z,9.73
2023-05-09T02:04:26.991Z,9.74
2023-05-09T02:04:38.648Z,9.74
2023-05-09T02:04:49.360Z,9.74
2023-05-09T02:05:01.072Z,9.74
2023-05-09T02:05:11.986Z,9.74
2023-05-09T02:05:24.804Z,9.74
2023-05-09T02:05:37.989Z,9.74
2023-05-09T02:05:49.724Z,9.74
2023-05-09T02:06:01.454Z,9.75
2023-05-09T02:06:12.156Z,9.74
2023-05-09T02:06:24.565Z,9.75
2023-05-09T02:06:38.251Z,9.74
2023-05-09T02:06:48.971Z,9.74
2023-05-09T02:07:01.394Z,9.74
2023-05-09T02:07:13.090Z,9.75
2023-05-09T02:07:24.742Z,9.74
2023-05-09T02:07:36.449Z,9.77
2023-05-09T02:07:47.176Z,9.75
2023-05-09T02:07:58.884Z,9.74
2023-05-09T02:08:09.592Z,9.75
2023-05-09T02:08:21.800Z,9.75
2023-05-09T02:08:32.598Z,9.75
2023-05-09T02:08:43.338Z,9.75
2023-05-09T02:08:55.568Z,9.77
2023-05-09T02:09:06.305Z,9.77
2023-05-09T02:09:17.062Z,9.74
2023-05-09T02:09:27.793Z,9.75
2023-05-09T02:09:39.747Z,9.75
2023-05-09T02:09:52.219Z,9.77
2023-05-09T02:10:03.942Z,9.77
2023-05-09T02:10:14.703Z,9.77
2023-05-09T02:10:27.131Z,9.77
2023-05-09T02:10:37.864Z,9.78
2023-05-09T02:10:48.599Z,9.77
2023-05-09T02:11:00.259Z,9.78
2023-05-09T02:11:11.924Z,9.78
2023-05-09T02:11:25.655Z,9.80
2023-05-09T02:11:38.528Z,9.80
2023-05-09T02:11:51.700Z,9.78
2023-05-09T02:12:04.604Z,9.77
2023-05-09T02:12:15.329Z,9.78
2023-05-09T02:12:27.236Z,9.78
2023-05-09T02:12:37.953Z,9.80
2023-05-09T02:12:49.661Z,9.80
2023-05-09T02:13:00.448Z,9.80
2023-05-09T02:13:13.154Z,9.80
2023-05-09T02:13:24.921Z,9.80
2023-05-09T02:13:35.634Z,9.80
2023-05-09T02:13:47.333Z,9.80
2023-05-09T02:13:58.055Z,9.78
2023-05-09T02:14:09.745Z,9.81
2023-05-09T02:14:22.136Z,9.80
2023-05-09T02:14:32.826Z,9.80
2023-05-09T02:14:43.576Z,9.80
2023-05-09T02:14:54.283Z,9.78
2023-05-09T02:15:05.938Z,9.78
2023-05-09T02:15:18.360Z,9.78
2023-05-09T02:15:30.777Z,9.78
2023-05-09T02:15:43.971Z,9.80
2023-05-09T02:15:56.407Z,9.78
2023-05-09T02:16:08.625Z,9.78
2023-05-09T02:16:21.127Z,9.78
2023-05-09T02:16:33.700Z,9.80
2023-05-09T02:16:45.472Z,9.78
2023-05-09T02:16:57.757Z,9.80
2023-05-09T02:17:10.315Z,9.78
2023-05-09T02:17:21.022Z,9.77
2023-05-09T02:17:31.788Z,9.77
2023-05-09T02:17:42.534Z,9.77
2023-05-09T02:17:55.717Z,9.78
2023-05-09T02:18:06.430Z,9.78
2023-05-09T02:18:18.803Z,9.78
2023-05-09T02:18:32.525Z,9.80
2023-05-09T02:18:43.258Z,9.78
2023-05-09T02:18:56.992Z,9.78
2023-05-09T02:19:07.727Z,9.78
2023-05-09T02:19:18.447Z,9.80
2023-05-09T02:19:29.235Z,9.77
2023-05-09T02:19:41.619Z,9.78
2023-05-09T02:19:53.618Z,9.78
2023-05-09T02:20:04.317Z,9.78
2023-05-09T02:20:15.027Z,9.78
2023-05-09T02:20:25.726Z,9.77
2023-05-09T02:20:38.169Z,9.78
2023-05-09T02:20:49.975Z,9.77
2023-05-09T02:21:02.445Z,9.77
2023-05-09T02:21:14.909Z,9.75
2023-05-09T02:21:29.141Z,9.75
2023-05-09T02:21:40.968Z,9.74
2023-05-09T02:21:53.183Z,9.75
2023-05-09T02:22:03.979Z,9.73
2023-05-09T02:22:14.791Z,9.73
2023-05-09T02:22:25.480Z,9.73
2023-05-09T02:22:37.170Z,9.73
2023-05-09T02:22:47.886Z,9.73
2023-05-09T02:22:59.554Z,9.70
2023-05-09T02:23:11.965Z,9.70
2023-05-09T02:23:23.644Z,9.68
2023-05-09T02:23:34.352Z,9.68
2023-05-09T02:23:46.776Z,9.68
2023-05-09T02:23:58.439Z,9.68
2023-05-09T02:24:10.105Z,9.67
2023-05-09T02:24:20.861Z,9.65
2023-05-09T02:24:33.241Z,9.67
2023-05-09T02:24:45.644Z,9.63
2023-05-09T02:24:56.396Z,9.63
2023-05-09T02:25:07.106Z,9.63
2023-05-09T02:25:18.786Z,9.63
2023-05-09T02:25:30.518Z,9.62
2023-05-09T02:25:41.216Z,9.62
2023-05-09T02:25:53.419Z,9.62
2023-05-09T02:26:06.660Z,9.62
2023-05-09T02:26:19.069Z,9.60
2023-05-09T02:26:29.799Z,9.60
2023-05-09T02:26:42.204Z,9.59
2023-05-09T02:26:52.981Z,9.60
2023-05-09T02:27:04.736Z,9.59
2023-05-09T02:27:15.443Z,9.59
2023-05-09T02:27:26.205Z,9.58
2023-05-09T02:27:38.595Z,9.56
2023-05-09T02:27:49.307Z,9.58
2023-05-09T02:28:01.026Z,9.56
2023-05-09T02:28:13.433Z,9.56
2023-05-09T02:28:24.152Z,9.56
2023-05-09T02:28:34.848Z,9.56
2023-05-09T02:28:45.567Z,9.55
2023-05-09T02:28:57.269Z,9.55
2023-05-09T02:29:07.992Z,9.53
2023-05-09T02:29:19.723Z,9.55
2023-05-09T02:29:30.430Z,9.55
2023-05-09T02:29:43.626Z,9.52
2023-05-09T02:29:54.348Z,9.53
2023-05-09T02:30:05.052Z,9.50
2023-05-09T02:30:17.517Z,9.50
2023-05-09T02:30:29.975Z,9.50
2023-05-09T02:30:41.662Z,9.50
2023-05-09T02:30:53.336Z,9.49
2023-05-09T02:31:04.118Z,9.49
2023-05-09T02:31:16.538Z,9.49
2023-05-09T02:31:27.288Z,9.48
2023-05-09T02:31:39.022Z,9.48
2023-05-09T02:31:51.413Z,9.48
2023-05-09T02:32:03.233Z,9.48
2023-05-09T02:32:15.832Z,9.48
2023-05-09T02:32:27.595Z,9.48
2023-05-09T02:32:38.315Z,9.45
2023-05-09T02:32:50.810Z,9.44
2023-05-09T02:33:03.236Z,9.44
2023-05-09T02:33:14.898Z,9.44
2023-05-09T02:33:26.578Z,9.44
2023-05-09T02:33:39.028Z,9.42
2023-05-09T02:33:49.755Z,9.42
2023-05-09T02:34:02.973Z,9.41
2023-05-09T02:34:14.688Z,9.41
2023-05-09T02:34:26.375Z,9.41
2023-05-09T02:34:38.073Z,9.40